Terminal Aerodrome Forecast
Issued by NWS Des Moines, IA

Home | Current Version | Previous Version | Text Only | Print | Product List | Glossary On
Versions: 1 2 3 4 5 6 7 8 9 10 11 12 13 14 15 16 17 18 19 20 21 22 23 24 25 26 27 28 29 30 31 32 33 34 35 36 37 38 39 40 41
000
FTUS43 KDMX 301139
TAFDSM
TAF
KDSM 301139Z 3012/0112 05013G19KT 6SM -DZ BR OVC005
     FM301330 06014G20KT 6SM BR OVC006
     FM301500 06015G22KT 5SM BR VCSH OVC007
     FM301630 06013G20KT 3SM SHRA BR OVC008
     FM302000 07012KT 4SM -SHRA BR OVC009
     FM010000 09008KT 3SM -RA BR OVC007
     FM010400 14007KT 2SM -RA BR OVC005=

USA.gov is the U.S. government's official web portal to all federal, state and local government web resources and services.